sensor_id;sensor_type;location;lat;lon;timestamp;pressure;altitude;pressure_sealevel;temperature;humidity
10732;BME280;5417;42.686;23.244;2022-12-11T00:02:28;92263.38;;;12.57;85.43
10732;BME280;5417;42.686;23.244;2022-12-11T00:04:55;92288.69;;;12.56;85.20
10732;BME280;5417;42.686;23.244;2022-12-11T00:07:22;92277.88;;;12.59;85.84
10732;BME280;5417;42.686;23.244;2022-12-11T00:09:49;92241.84;;;12.76;84.68
10732;BME280;5417;42.686;23.244;2022-12-11T00:12:16;92252.47;;;12.75;84.15
10732;BME280;5417;42.686;23.244;2022-12-11T00:14:43;92255.03;;;12.68;85.08
10732;BME280;5417;42.686;23.244;2022-12-11T00:17:09;92247.03;;;12.70;84.59
10732;BME280;5417;42.686;23.244;2022-12-11T00:19:38;92289.16;;;12.67;83.89
10732;BME280;5417;42.686;23.244;2022-12-11T00:22:04;92283.75;;;12.68;84.56
10732;BME280;5417;42.686;23.244;2022-12-11T00:24:32;92246.22;;;12.69;84.47
10732;BME280;5417;42.686;23.244;2022-12-11T00:26:59;92280.53;;;12.66;85.18
10732;BME280;5417;42.686;23.244;2022-12-11T00:29:26;92253.81;;;12.64;84.93
10732;BME280;5417;42.686;23.244;2022-12-11T00:31:53;92237.38;;;12.70;85.24
10732;BME280;5417;42.686;23.244;2022-12-11T00:34:21;92277.38;;;12.77;84.65
10732;BME280;5417;42.686;23.244;2022-12-11T00:36:49;92251.31;;;12.84;83.07
10732;BME280;5417;42.686;23.244;2022-12-11T00:39:16;92260.72;;;12.78;82.59
10732;BME280;5417;42.686;23.244;2022-12-11T00:41:43;92222.94;;;12.74;82.85
10732;BME280;5417;42.686;23.244;2022-12-11T00:44:09;92210.28;;;12.43;84.26
10732;BME280;5417;42.686;23.244;2022-12-11T00:46:36;92233.28;;;12.33;84.90
10732;BME280;5417;42.686;23.244;2022-12-11T00:49:03;92233.66;;;12.30;85.80
10732;BME280;5417;42.686;23.244;2022-12-11T00:51:30;92271.22;;;12.36;85.94
10732;BME280;5417;42.686;23.244;2022-12-11T00:53:58;92235.31;;;12.38;85.95
10732;BME280;5417;42.686;23.244;2022-12-11T00:56:25;92233.91;;;12.35;85.84
10732;BME280;5417;42.686;23.244;2022-12-11T00:58:52;92244.94;;;12.37;86.19
10732;BME280;5417;42.686;23.244;2022-12-11T01:01:23;92250.34;;;12.36;86.49
10732;BME280;5417;42.686;23.244;2022-12-11T01:03:50;92248.97;;;12.40;86.23
10732;BME280;5417;42.686;23.244;2022-12-11T01:06:19;92272.69;;;12.45;86.50
10732;BME280;5417;42.686;23.244;2022-12-11T01:08:47;92249.97;;;12.60;85.33
10732;BME280;5417;42.686;23.244;2022-12-11T01:11:35;92235.88;;;12.54;84.49
10732;BME280;5417;42.686;23.244;2022-12-11T01:14:01;92224.88;;;12.59;83.51
10732;BME280;5417;42.686;23.244;2022-12-11T01:16:28;92272.88;;;12.64;84.46
10732;BME280;5417;42.686;23.244;2022-12-11T01:18:55;92232.88;;;12.57;84.77
10732;BME280;5417;42.686;23.244;2022-12-11T01:21:23;92256.06;;;12.46;84.71
10732;BME280;5417;42.686;23.244;2022-12-11T01:23:50;92272.50;;;12.46;86.36
10732;BME280;5417;42.686;23.244;2022-12-11T01:26:17;92235.53;;;12.64;88.15
10732;BME280;5417;42.686;23.244;2022-12-11T01:28:48;92218.78;;;12.80;88.84
10732;BME280;5417;42.686;23.244;2022-12-11T01:31:16;92204.59;;;12.95;89.25
10732;BME280;5417;42.686;23.244;2022-12-11T01:33:43;92189.81;;;13.09;89.03
10732;BME280;5417;42.686;23.244;2022-12-11T01:36:13;92241.97;;;13.24;87.40
10732;BME280;5417;42.686;23.244;2022-12-11T01:38:40;92229.75;;;13.38;87.82
10732;BME280;5417;42.686;23.244;2022-12-11T01:41:07;92231.25;;;13.53;86.40
10732;BME280;5417;42.686;23.244;2022-12-11T01:46:18;92210.19;;;13.68;78.27
10732;BME280;5417;42.686;23.244;2022-12-11T01:48:45;92181.25;;;13.76;78.95
10732;BME280;5417;42.686;23.244;2022-12-11T01:51:13;92183.47;;;13.79;78.55
10732;BME280;5417;42.686;23.244;2022-12-11T01:53:45;92167.97;;;13.78;79.67
10732;BME280;5417;42.686;23.244;2022-12-11T01:56:14;92177.84;;;13.82;79.25
10732;BME280;5417;42.686;23.244;2022-12-11T01:58:45;92171.97;;;13.74;79.35
10732;BME280;5417;42.686;23.244;2022-12-11T02:01:18;92185.88;;;13.74;78.75
10732;BME280;5417;42.686;23.244;2022-12-11T02:03:46;92179.63;;;13.75;78.40
10732;BME280;5417;42.686;23.244;2022-12-11T02:06:30;92168.75;;;13.65;78.63
10732;BME280;5417;42.686;23.244;2022-12-11T02:09:00;92160.50;;;13.68;77.96
10732;BME280;5417;42.686;23.244;2022-12-11T02:11:34;92158.91;;;13.67;77.79
10732;BME280;5417;42.686;23.244;2022-12-11T02:14:12;92133.34;;;13.56;77.96
10732;BME280;5417;42.686;23.244;2022-12-11T02:16:46;92137.19;;;13.60;78.36
10732;BME280;5417;42.686;23.244;2022-12-11T02:19:31;92128.13;;;13.56;77.70
10732;BME280;5417;42.686;23.244;2022-12-11T02:22:08;92106.97;;;13.51;77.58
10732;BME280;5417;42.686;23.244;2022-12-11T02:24:50;92104.00;;;13.61;76.56
10732;BME280;5417;42.686;23.244;2022-12-11T02:27:32;92101.59;;;13.66;77.15
10732;BME280;5417;42.686;23.244;2022-12-11T02:30:05;92097.78;;;13.68;77.08
10732;BME280;5417;42.686;23.244;2022-12-11T02:32:36;92090.13;;;13.73;76.95
10732;BME280;5417;42.686;23.244;2022-12-11T02:35:10;92081.88;;;13.76;77.96
10732;BME280;5417;42.686;23.244;2022-12-11T02:37:43;92083.69;;;13.89;78.86
10732;BME280;5417;42.686;23.244;2022-12-11T02:40:13;92071.44;;;13.83;80.24
10732;BME280;5417;42.686;23.244;2022-12-11T02:42:43;92091.75;;;13.94;80.88
10732;BME280;5417;42.686;23.244;2022-12-11T02:45:13;92068.00;;;13.96;79.87
10732;BME280;5417;42.686;23.244;2022-12-11T02:47:41;92060.97;;;14.03;79.34
10732;BME280;5417;42.686;23.244;2022-12-11T02:50:14;92065.19;;;14.04;79.69
10732;BME280;5417;42.686;23.244;2022-12-11T02:52:43;92082.72;;;14.10;78.57
10732;BME280;5417;42.686;23.244;2022-12-11T02:55:14;92093.97;;;14.17;78.61
10732;BME280;5417;42.686;23.244;2022-12-11T02:57:44;92089.34;;;14.19;77.82
10732;BME280;5417;42.686;23.244;2022-12-11T03:00:15;92097.38;;;14.31;77.01
10732;BME280;5417;42.686;23.244;2022-12-11T03:02:43;92102.78;;;14.36;77.40
10732;BME280;5417;42.686;23.244;2022-12-11T03:05:11;92102.41;;;14.32;77.52
10732;BME280;5417;42.686;23.244;2022-12-11T03:07:40;92074.63;;;14.31;76.56
10732;BME280;5417;42.686;23.244;2022-12-11T03:10:10;92085.47;;;14.35;77.15
10732;BME280;5417;42.686;23.244;2022-12-11T03:12:42;92081.84;;;14.36;78.06
10732;BME280;5417;42.686;23.244;2022-12-11T03:15:12;92069.75;;;14.41;77.20
10732;BME280;5417;42.686;23.244;2022-12-11T03:17:51;92067.94;;;14.42;77.41
10732;BME280;5417;42.686;23.244;2022-12-11T03:20:30;92089.09;;;14.40;77.33
10732;BME280;5417;42.686;23.244;2022-12-11T03:23:02;92083.47;;;14.50;77.37
10732;BME280;5417;42.686;23.244;2022-12-11T03:25:41;92083.06;;;14.40;77.68
10732;BME280;5417;42.686;23.244;2022-12-11T03:28:13;92069.59;;;14.43;76.65
10732;BME280;5417;42.686;23.244;2022-12-11T03:30:43;92078.63;;;14.53;75.61
10732;BME280;5417;42.686;23.244;2022-12-11T03:33:14;92092.31;;;14.56;75.98
10732;BME280;5417;42.686;23.244;2022-12-11T03:35:48;92069.78;;;14.61;76.52
10732;BME280;5417;42.686;23.244;2022-12-11T03:38:20;92095.94;;;14.61;76.35
10732;BME280;5417;42.686;23.244;2022-12-11T03:40:50;92093.13;;;14.56;76.70
10732;BME280;5417;42.686;23.244;2022-12-11T03:43:20;92095.94;;;14.55;76.23
10732;BME280;5417;42.686;23.244;2022-12-11T03:45:48;92106.84;;;14.58;76.23
10732;BME280;5417;42.686;23.244;2022-12-11T03:48:17;92108.81;;;14.56;75.89
10732;BME280;5417;42.686;23.244;2022-12-11T03:50:47;92120.31;;;14.62;75.67
10732;BME280;5417;42.686;23.244;2022-12-11T03:53:15;92143.47;;;14.65;75.17
10732;BME280;5417;42.686;23.244;2022-12-11T03:55:42;92142.03;;;14.69;74.67
10732;BME280;5417;42.686;23.244;2022-12-11T03:58:09;92145.47;;;14.69;73.88
10732;BME280;5417;42.686;23.244;2022-12-11T04:00:37;92168.41;;;14.74;72.06
10732;BME280;5417;42.686;23.244;2022-12-11T04:03:05;92167.22;;;14.76;72.00
10732;BME280;5417;42.686;23.244;2022-12-11T04:05:49;92175.66;;;14.85;71.44
10732;BME280;5417;42.686;23.244;2022-12-11T04:08:17;92186.31;;;14.83;71.40
10732;BME280;5417;42.686;23.244;2022-12-11T04:10:45;92204.25;;;14.87;72.16
10732;BME280;5417;42.686;23.244;2022-12-11T04:13:12;92193.59;;;14.81;73.29
10732;BME280;5417;42.686;23.244;2022-12-11T04:15:40;92205.25;;;14.86;72.62
10732;BME280;5417;42.686;23.244;2022-12-11T04:18:06;92226.41;;;14.84;72.20
10732;BME280;5417;42.686;23.244;2022-12-11T04:20:53;92248.56;;;14.88;72.32
10732;BME280;5417;42.686;23.244;2022-12-11T04:23:37;92239.91;;;14.94;71.91
10732;BME280;5417;42.686;23.244;2022-12-11T04:26:21;92239.72;;;14.89;72.25
10732;BME280;5417;42.686;23.244;2022-12-11T04:28:49;92253.59;;;14.96;72.03
10732;BME280;5417;42.686;23.244;2022-12-11T04:31:17;92250.38;;;14.94;72.08
10732;BME280;5417;42.686;23.244;2022-12-11T04:33:45;92266.09;;;15.01;71.60
10732;BME280;5417;42.686;23.244;2022-12-11T04:36:13;92258.41;;;15.06;72.08
10732;BME280;5417;42.686;23.244;2022-12-11T04:38:41;92277.56;;;15.00;71.79
10732;BME280;5417;42.686;23.244;2022-12-11T04:41:10;92272.53;;;15.05;71.26
10732;BME280;5417;42.686;23.244;2022-12-11T04:43:37;92266.28;;;14.99;71.11
10732;BME280;5417;42.686;23.244;2022-12-11T04:46:08;92303.38;;;15.03;70.86
10732;BME280;5417;42.686;23.244;2022-12-11T04:48:37;92290.88;;;14.98;70.19
10732;BME280;5417;42.686;23.244;2022-12-11T04:51:05;92281.19;;;15.05;68.71
10732;BME280;5417;42.686;23.244;2022-12-11T04:53:34;92284.84;;;14.98;69.01
10732;BME280;5417;42.686;23.244;2022-12-11T04:56:04;92303.78;;;15.00;68.50
10732;BME280;5417;42.686;23.244;2022-12-11T04:58:31;92285.25;;;14.88;67.96
10732;BME280;5417;42.686;23.244;2022-12-11T05:00:57;92302.34;;;14.97;67.66
10732;BME280;5417;42.686;23.244;2022-12-11T05:03:24;92298.94;;;15.03;67.95
10732;BME280;5417;42.686;23.244;2022-12-11T05:05:52;92302.16;;;15.12;68.09
10732;BME280;5417;42.686;23.244;2022-12-11T05:08:20;92295.91;;;15.06;68.93
10732;BME280;5417;42.686;23.244;2022-12-11T05:10:55;92272.75;;;14.90;69.39
10732;BME280;5417;42.686;23.244;2022-12-11T05:13:22;92272.94;;;14.95;70.03
10732;BME280;5417;42.686;23.244;2022-12-11T05:15:50;92265.91;;;14.89;70.39
10732;BME280;5417;42.686;23.244;2022-12-11T05:18:17;92269.53;;;14.95;70.36
10732;BME280;5417;42.686;23.244;2022-12-11T05:20:44;92276.97;;;14.91;70.78
10732;BME280;5417;42.686;23.244;2022-12-11T05:23:19;92280.59;;;15.03;70.76
10732;BME280;5417;42.686;23.244;2022-12-11T05:25:50;92269.09;;;14.98;70.98
10732;BME280;5417;42.686;23.244;2022-12-11T05:28:19;92270.31;;;14.95;71.68
10732;BME280;5417;42.686;23.244;2022-12-11T05:30:46;92257.44;;;14.87;71.29
10732;BME280;5417;42.686;23.244;2022-12-11T05:33:13;92260.88;;;14.88;72.21
10732;BME280;5417;42.686;23.244;2022-12-11T05:35:46;92269.13;;;14.91;71.21
10732;BME280;5417;42.686;23.244;2022-12-11T05:38:13;92270.34;;;14.89;71.65
10732;BME280;5417;42.686;23.244;2022-12-11T05:40:40;92277.38;;;14.88;71.91
10732;BME280;5417;42.686;23.244;2022-12-11T05:43:07;92258.03;;;14.96;71.72
10732;BME280;5417;42.686;23.244;2022-12-11T05:45:35;92261.47;;;14.96;72.64
10732;BME280;5417;42.686;23.244;2022-12-11T05:48:03;92253.78;;;15.01;71.82
10732;BME280;5417;42.686;23.244;2022-12-11T05:50:30;92242.31;;;14.96;72.35
10732;BME280;5417;42.686;23.244;2022-12-11T05:52:57;92254.38;;;15.03;72.32
10732;BME280;5417;42.686;23.244;2022-12-11T05:55:24;92239.50;;;14.91;72.38
10732;BME280;5417;42.686;23.244;2022-12-11T05:57:52;92244.13;;;14.95;72.50
10732;BME280;5417;42.686;23.244;2022-12-11T06:00:19;92248.16;;;14.91;72.66
10732;BME280;5417;42.686;23.244;2022-12-11T06:02:48;92248.97;;;14.85;72.65
10732;BME280;5417;42.686;23.244;2022-12-11T06:05:15;92246.78;;;14.82;72.01
10732;BME280;5417;42.686;23.244;2022-12-11T06:07:41;92248.56;;;14.88;71.63
10732;BME280;5417;42.686;23.244;2022-12-11T06:10:09;92231.66;;;14.84;70.60
10732;BME280;5417;42.686;23.244;2022-12-11T06:12:36;92260.25;;;14.92;70.25
10732;BME280;5417;42.686;23.244;2022-12-11T06:15:03;92237.09;;;14.89;69.11
10732;BME280;5417;42.686;23.244;2022-12-11T06:17:30;92249.75;;;15.05;68.83
10732;BME280;5417;42.686;23.244;2022-12-11T06:19:59;92249.16;;;15.03;68.96
10732;BME280;5417;42.686;23.244;2022-12-11T06:22:26;92264.47;;;15.06;69.40
10732;BME280;5417;42.686;23.244;2022-12-11T06:24:59;92272.53;;;15.18;70.43
10732;BME280;5417;42.686;23.244;2022-12-11T06:29:05;92275.53;;;15.22;71.11
10732;BME280;5417;42.686;23.244;2022-12-11T06:30:43;92274.91;;;15.33;71.41
10732;BME280;5417;42.686;23.244;2022-12-11T06:33:10;92269.06;;;15.31;71.77
10732;BME280;5417;42.686;23.244;2022-12-11T06:35:39;92286.22;;;15.27;71.71
10732;BME280;5417;42.686;23.244;2022-12-11T06:38:06;92283.41;;;15.22;71.75
10732;BME280;5417;42.686;23.244;2022-12-11T06:40:33;92298.31;;;15.21;70.87
10732;BME280;5417;42.686;23.244;2022-12-11T06:42:59;92313.44;;;15.26;70.54
10732;BME280;5417;42.686;23.244;2022-12-11T06:45:26;92302.97;;;15.19;69.22
10732;BME280;5417;42.686;23.244;2022-12-11T06:47:53;92305.16;;;15.29;69.26
10732;BME280;5417;42.686;23.244;2022-12-11T06:50:23;92299.69;;;15.37;70.05
10732;BME280;5417;42.686;23.244;2022-12-11T06:52:52;92291.06;;;15.30;69.82
10732;BME280;5417;42.686;23.244;2022-12-11T06:55:21;92283.59;;;15.27;70.32
10732;BME280;5417;42.686;23.244;2022-12-11T06:57:48;92282.75;;;15.46;70.88
10732;BME280;5417;42.686;23.244;2022-12-11T07:00:15;92300.44;;;15.57;69.95
10732;BME280;5417;42.686;23.244;2022-12-11T07:02:42;92280.91;;;15.60;69.34
10732;BME280;5417;42.686;23.244;2022-12-11T07:05:09;92300.47;;;15.70;69.37
10732;BME280;5417;42.686;23.244;2022-12-11T07:07:36;92302.84;;;15.78;69.16
10732;BME280;5417;42.686;23.244;2022-12-11T07:10:06;92304.22;;;15.88;68.25
10732;BME280;5417;42.686;23.244;2022-12-11T07:12:33;92311.28;;;15.94;68.11
10732;BME280;5417;42.686;23.244;2022-12-11T07:15:00;92304.53;;;16.11;68.64
10732;BME280;5417;42.686;23.244;2022-12-11T07:17:29;92309.53;;;16.26;67.78
10732;BME280;5417;42.686;23.244;2022-12-11T07:19:59;92306.75;;;16.14;67.07
10732;BME280;5417;42.686;23.244;2022-12-11T07:22:27;92315.22;;;16.16;67.04
10732;BME280;5417;42.686;23.244;2022-12-11T07:24:54;92312.81;;;16.15;67.01
10732;BME280;5417;42.686;23.244;2022-12-11T07:27:23;92322.50;;;16.14;67.72
10732;BME280;5417;42.686;23.244;2022-12-11T07:29:54;92308.31;;;16.28;67.41
10732;BME280;5417;42.686;23.244;2022-12-11T07:32:21;92336.38;;;16.28;67.16
10732;BME280;5417;42.686;23.244;2022-12-11T07:34:48;92341.88;;;16.20;67.30
10732;BME280;5417;42.686;23.244;2022-12-11T07:37:17;92355.00;;;16.13;67.67
10732;BME280;5417;42.686;23.244;2022-12-11T07:39:44;92352.81;;;16.03;67.91
10732;BME280;5417;42.686;23.244;2022-12-11T07:42:13;92353.00;;;16.02;68.49
10732;BME280;5417;42.686;23.244;2022-12-11T07:44:41;92343.75;;;15.93;68.70
10732;BME280;5417;42.686;23.244;2022-12-11T07:47:08;92337.91;;;15.97;68.70
10732;BME280;5417;42.686;23.244;2022-12-11T07:49:35;92364.34;;;15.96;68.63
10732;BME280;5417;42.686;23.244;2022-12-11T07:52:03;92368.41;;;15.92;68.16
10732;BME280;5417;42.686;23.244;2022-12-11T07:54:29;92383.31;;;15.91;67.87
10732;BME280;5417;42.686;23.244;2022-12-11T07:56:56;92374.25;;;15.94;68.28
10732;BME280;5417;42.686;23.244;2022-12-11T07:59:23;92366.97;;;15.96;68.21
10732;BME280;5417;42.686;23.244;2022-12-11T08:02:03;92364.34;;;15.96;67.99
10732;BME280;5417;42.686;23.244;2022-12-11T08:04:31;92357.47;;;15.95;68.96
10732;BME280;5417;42.686;23.244;2022-12-11T08:06:58;92374.84;;;15.96;68.85
10732;BME280;5417;42.686;23.244;2022-12-11T08:09:25;92378.06;;;15.98;67.73
10732;BME280;5417;42.686;23.244;2022-12-11T08:11:53;92384.53;;;15.95;67.13
10732;BME280;5417;42.686;23.244;2022-12-11T08:14:20;92386.34;;;15.95;68.14
10732;BME280;5417;42.686;23.244;2022-12-11T08:16:52;92397.22;;;15.98;68.50
10732;BME280;5417;42.686;23.244;2022-12-11T08:19:21;92375.44;;;15.98;66.76
10732;BME280;5417;42.686;23.244;2022-12-11T08:21:48;92401.88;;;16.03;66.55
10732;BME280;5417;42.686;23.244;2022-12-11T08:24:15;92402.47;;;15.98;65.72
10732;BME280;5417;42.686;23.244;2022-12-11T08:26:46;92398.63;;;16.01;65.91
10732;BME280;5417;42.686;23.244;2022-12-11T08:29:13;92397.81;;;16.07;66.61
10732;BME280;5417;42.686;23.244;2022-12-11T08:31:40;92397.19;;;16.18;67.24
10732;BME280;5417;42.686;23.244;2022-12-11T08:34:07;92395.38;;;16.19;68.46
10732;BME280;5417;42.686;23.244;2022-12-11T08:36:39;92382.47;;;16.04;69.04
10732;BME280;5417;42.686;23.244;2022-12-11T08:39:06;92403.25;;;16.12;69.43
10732;BME280;5417;42.686;23.244;2022-12-11T08:41:35;92403.44;;;16.17;69.99
10732;BME280;5417;42.686;23.244;2022-12-11T08:44:12;92397.19;;;16.18;71.61
10732;BME280;5417;42.686;23.244;2022-12-11T08:46:41;92397.81;;;16.14;71.42
10732;BME280;5417;42.686;23.244;2022-12-11T08:49:13;92402.66;;;16.17;71.98
10732;BME280;5417;42.686;23.244;2022-12-11T08:51:42;92401.41;;;16.13;72.90
10732;BME280;5417;42.686;23.244;2022-12-11T08:54:09;92402.88;;;16.02;72.56
10732;BME280;5417;42.686;23.244;2022-12-11T08:56:40;92392.59;;;16.00;72.67
10732;BME280;5417;42.686;23.244;2022-12-11T08:59:10;92386.13;;;15.96;71.48
10732;BME280;5417;42.686;23.244;2022-12-11T09:01:37;92395.84;;;15.89;72.47
10732;BME280;5417;42.686;23.244;2022-12-11T09:04:04;92382.72;;;15.89;73.82
10732;BME280;5417;42.686;23.244;2022-12-11T09:06:33;92398.19;;;16.24;73.75
10732;BME280;5417;42.686;23.244;2022-12-11T09:09:13;92373.31;;;16.33;73.07
10732;BME280;5417;42.686;23.244;2022-12-11T09:11:43;92384.50;;;16.53;72.58
10732;BME280;5417;42.686;23.244;2022-12-11T09:14:12;92374.09;;;16.78;72.97
10732;BME280;5417;42.686;23.244;2022-12-11T09:16:40;92375.59;;;16.99;72.23
10732;BME280;5417;42.686;23.244;2022-12-11T09:19:11;92374.66;;;17.18;70.48
10732;BME280;5417;42.686;23.244;2022-12-11T09:21:39;92376.25;;;17.44;70.83
10732;BME280;5417;42.686;23.244;2022-12-11T09:24:09;92374.03;;;17.73;69.49
10732;BME280;5417;42.686;23.244;2022-12-11T09:26:38;92365.47;;;17.77;67.87
10732;BME280;5417;42.686;23.244;2022-12-11T09:29:06;92348.72;;;17.90;66.86
10732;BME280;5417;42.686;23.244;2022-12-11T09:31:35;92349.03;;;18.00;65.63
10732;BME280;5417;42.686;23.244;2022-12-11T09:34:10;92363.19;;;18.17;62.60
10732;BME280;5417;42.686;23.244;2022-12-11T09:36:41;92355.63;;;18.27;63.03
10732;BME280;5417;42.686;23.244;2022-12-11T09:39:10;92349.59;;;18.39;62.67
10732;BME280;5417;42.686;23.244;2022-12-11T09:41:49;92347.97;;;18.38;62.55
10732;BME280;5417;42.686;23.244;2022-12-11T09:44:23;92343.13;;;18.53;63.55
10732;BME280;5417;42.686;23.244;2022-12-11T09:46:56;92321.34;;;18.46;62.14
10732;BME280;5417;42.686;23.244;2022-12-11T09:49:34;92324.97;;;18.63;61.80
10732;BME280;5417;42.686;23.244;2022-12-11T09:52:12;92330.72;;;18.72;59.69
10732;BME280;5417;42.686;23.244;2022-12-11T09:54:46;92344.06;;;18.77;60.17
10732;BME280;5417;42.686;23.244;2022-12-11T09:57:24;92331.47;;;18.79;59.64
10732;BME280;5417;42.686;23.244;2022-12-11T10:00:04;92325.31;;;18.67;59.46
10732;BME280;5417;42.686;23.244;2022-12-11T10:03:09;92321.91;;;18.48;61.65
10732;BME280;5417;42.686;23.244;2022-12-11T10:05:47;92318.56;;;18.41;62.76
10732;BME280;5417;42.686;23.244;2022-12-11T10:08:19;92324.19;;;18.44;62.37
10732;BME280;5417;42.686;23.244;2022-12-11T10:11:04;92315.03;;;18.47;62.10
10732;BME280;5417;42.686;23.244;2022-12-11T10:13:45;92318.47;;;18.47;60.96
10732;BME280;5417;42.686;23.244;2022-12-11T10:16:20;92331.19;;;18.50;60.69
10732;BME280;5417;42.686;23.244;2022-12-11T10:18:52;92333.34;;;18.42;60.00
10732;BME280;5417;42.686;23.244;2022-12-11T10:21:21;92326.19;;;18.31;60.82
10732;BME280;5417;42.686;23.244;2022-12-11T10:23:53;92330.34;;;18.20;61.58
10732;BME280;5417;42.686;23.244;2022-12-11T10:26:26;92339.59;;;18.11;62.37
10732;BME280;5417;42.686;23.244;2022-12-11T10:29:13;92335.94;;;18.12;62.10
10732;BME280;5417;42.686;23.244;2022-12-11T10:31:46;92329.78;;;18.00;62.63
10732;BME280;5417;42.686;23.244;2022-12-11T10:34:26;92317.97;;;17.90;62.71
10732;BME280;5417;42.686;23.244;2022-12-11T10:37:02;92324.41;;;17.76;63.46
10732;BME280;5417;42.686;23.244;2022-12-11T10:39:39;92320.66;;;17.84;64.65
10732;BME280;5417;42.686;23.244;2022-12-11T10:42:15;92329.28;;;17.91;64.42
10732;BME280;5417;42.686;23.244;2022-12-11T10:44:57;92320.66;;;17.84;65.23
10732;BME280;5417;42.686;23.244;2022-12-11T10:47:28;92323.28;;;17.84;66.86
10732;BME280;5417;42.686;23.244;2022-12-11T10:50:04;92311.53;;;17.61;64.58
10732;BME280;5417;42.686;23.244;2022-12-11T10:52:34;92311.38;;;17.38;66.07
10732;BME280;5417;42.686;23.244;2022-12-11T10:55:05;92311.59;;;17.37;65.49
10732;BME280;5417;42.686;23.244;2022-12-11T10:57:38;92308.09;;;17.43;65.91
10732;BME280;5417;42.686;23.244;2022-12-11T11:00:25;92300.94;;;17.50;64.19
10732;BME280;5417;42.686;23.244;2022-12-11T11:03:00;92305.47;;;17.43;65.12
10732;BME280;5417;42.686;23.244;2022-12-11T11:05:31;92300.06;;;17.38;65.16
10732;BME280;5417;42.686;23.244;2022-12-11T11:08:17;92310.22;;;17.52;66.19
10732;BME280;5417;42.686;23.244;2022-12-11T11:10:56;92298.00;;;17.40;64.77
10732;BME280;5417;42.686;23.244;2022-12-11T11:13:30;92288.16;;;17.35;65.79
10732;BME280;5417;42.686;23.244;2022-12-11T11:16:03;92294.38;;;17.16;66.64
10732;BME280;5417;42.686;23.244;2022-12-11T11:18:34;92297.91;;;17.28;67.03
10732;BME280;5417;42.686;23.244;2022-12-11T11:21:04;92295.72;;;17.25;66.64
10732;BME280;5417;42.686;23.244;2022-12-11T11:23:42;92284.25;;;17.19;65.94
10732;BME280;5417;42.686;23.244;2022-12-11T11:26:12;92286.00;;;17.25;66.60
10732;BME280;5417;42.686;23.244;2022-12-11T11:28:47;92296.53;;;17.25;65.89
10732;BME280;5417;42.686;23.244;2022-12-11T11:31:17;92284.78;;;17.28;65.58
10732;BME280;5417;42.686;23.244;2022-12-11T11:33:53;92294.56;;;17.21;65.31
10732;BME280;5417;42.686;23.244;2022-12-11T11:36:27;92287.03;;;17.24;65.09
10732;BME280;5417;42.686;23.244;2022-12-11T11:39:19;92280.91;;;17.30;64.66
10732;BME280;5417;42.686;23.244;2022-12-11T11:41:59;92284.94;;;17.33;65.31
10732;BME280;5417;42.686;23.244;2022-12-11T11:44:33;92274.72;;;17.43;65.20
10732;BME280;5417;42.686;23.244;2022-12-11T11:47:09;92279.59;;;17.40;66.00
10732;BME280;5417;42.686;23.244;2022-12-11T11:49:48;92276.75;;;17.41;65.14
10732;BME280;5417;42.686;23.244;2022-12-11T11:52:23;92276.78;;;17.16;64.66
10732;BME280;5417;42.686;23.244;2022-12-11T11:54:57;92266.00;;;16.99;64.76
10732;BME280;5417;42.686;23.244;2022-12-11T11:57:34;92254.66;;;16.81;64.89
10732;BME280;5417;42.686;23.244;2022-12-11T12:00:16;92254.16;;;16.65;65.83
10732;BME280;5417;42.686;23.244;2022-12-11T12:02:46;92265.06;;;16.69;66.18
10732;BME280;5417;42.686;23.244;2022-12-11T12:05:16;92266.66;;;16.63;66.34
10732;BME280;5417;42.686;23.244;2022-12-11T12:07:56;92270.31;;;16.69;66.84
10732;BME280;5417;42.686;23.244;2022-12-11T12:10:28;92284.44;;;16.61;67.29
10732;BME280;5417;42.686;23.244;2022-12-11T12:13:02;92285.69;;;16.59;67.54
10732;BME280;5417;42.686;23.244;2022-12-11T12:15:38;92283.16;;;16.46;66.63
10732;BME280;5417;42.686;23.244;2022-12-11T12:18:23;92272.66;;;16.07;66.83
10732;BME280;5417;42.686;23.244;2022-12-11T12:21:01;92303.16;;;15.31;66.55
10732;BME280;5417;42.686;23.244;2022-12-11T12:23:45;92300.34;;;15.12;69.30
10732;BME280;5417;42.686;23.244;2022-12-11T12:26:26;92291.91;;;14.71;69.29
10732;BME280;5417;42.686;23.244;2022-12-11T12:29:00;92288.41;;;13.29;73.87
10732;BME280;5417;42.686;23.244;2022-12-11T12:31:58;92299.94;;;12.85;75.81
10732;BME280;5417;42.686;23.244;2022-12-11T12:34:42;92313.88;;;12.07;78.84
10732;BME280;5417;42.686;23.244;2022-12-11T12:37:20;92324.47;;;11.54;79.48
10732;BME280;5417;42.686;23.244;2022-12-11T12:40:02;92326.88;;;11.41;79.80
10732;BME280;5417;42.686;23.244;2022-12-11T12:42:40;92334.44;;;11.36;78.31
10732;BME280;5417;42.686;23.244;2022-12-11T12:45:21;92332.09;;;11.12;79.43
10732;BME280;5417;42.686;23.244;2022-12-11T12:47:54;92342.25;;;11.06;79.63
10732;BME280;5417;42.686;23.244;2022-12-11T12:50:28;92334.06;;;10.95;78.40
10732;BME280;5417;42.686;23.244;2022-12-11T12:52:59;92352.34;;;10.18;80.61
10732;BME280;5417;42.686;23.244;2022-12-11T12:55:28;92390.81;;;10.31;80.85
10732;BME280;5417;42.686;23.244;2022-12-11T12:57:58;92394.81;;;10.41;81.77
10732;BME280;5417;42.686;23.244;2022-12-11T13:00:31;92363.72;;;10.17;79.53
10732;BME280;5417;42.686;23.244;2022-12-11T13:03:00;92391.69;;;10.15;79.60
10732;BME280;5417;42.686;23.244;2022-12-11T13:05:32;92396.19;;;10.29;80.32
10732;BME280;5417;42.686;23.244;2022-12-11T13:08:02;92401.00;;;10.40;79.67
10732;BME280;5417;42.686;23.244;2022-12-11T13:10:31;92384.69;;;10.24;76.49
10732;BME280;5417;42.686;23.244;2022-12-11T13:13:00;92396.94;;;10.07;76.57
10732;BME280;5417;42.686;23.244;2022-12-11T13:15:38;92398.09;;;10.04;76.91
10732;BME280;5417;42.686;23.244;2022-12-11T13:18:32;92426.25;;;9.93;77.10
10732;BME280;5417;42.686;23.244;2022-12-11T13:21:02;92413.59;;;9.81;76.71
10732;BME280;5417;42.686;23.244;2022-12-11T13:23:49;92434.56;;;9.80;76.75
10732;BME280;5417;42.686;23.244;2022-12-11T13:26:26;92402.88;;;9.45;76.76